sensor_id;sensor_type;location;lat;lon;timestamp;P1;durP1;ratioP1;P2;durP2;ratioP2
85102;SDS011;75452;44.106;3.074;2024-02-23T00:01:45;2.47;;;1.55;;
85102;SDS011;75452;44.106;3.074;2024-02-23T00:04:12;1.23;;;1.10;;
85102;SDS011;75452;44.106;3.074;2024-02-23T00:06:37;1.73;;;1.38;;
85102;SDS011;75452;44.106;3.074;2024-02-23T00:09:03;1.13;;;1.00;;
85102;SDS011;75452;44.106;3.074;2024-02-23T00:11:28;1.15;;;1.05;;
85102;SDS011;75452;44.106;3.074;2024-02-23T00:13:54;1.98;;;1.10;;
85102;SDS011;75452;44.106;3.074;2024-02-23T00:16:19;1.42;;;1.27;;
85102;SDS011;75452;44.106;3.074;2024-02-23T00:18:45;1.85;;;1.17;;
85102;SDS011;75452;44.106;3.074;2024-02-23T00:21:10;1.60;;;1.50;;
85102;SDS011;75452;44.106;3.074;2024-02-23T00:23:35;1.30;;;1.20;;
85102;SDS011;75452;44.106;3.074;2024-02-23T00:26:01;1.40;;;1.15;;
85102;SDS011;75452;44.106;3.074;2024-02-23T00:28:27;1.45;;;1.35;;
85102;SDS011;75452;44.106;3.074;2024-02-23T00:30:52;1.23;;;1.13;;
85102;SDS011;75452;44.106;3.074;2024-02-23T00:33:18;1.60;;;1.25;;
85102;SDS011;75452;44.106;3.074;2024-02-23T00:35:43;1.70;;;1.40;;
85102;SDS011;75452;44.106;3.074;2024-02-23T00:38:09;2.42;;;1.38;;
85102;SDS011;75452;44.106;3.074;2024-02-23T00:40:34;1.38;;;1.13;;
85102;SDS011;75452;44.106;3.074;2024-02-23T00:43:00;1.75;;;1.50;;
85102;SDS011;75452;44.106;3.074;2024-02-23T00:45:26;1.58;;;1.20;;
85102;SDS011;75452;44.106;3.074;2024-02-23T00:47:51;1.35;;;1.23;;
85102;SDS011;75452;44.106;3.074;2024-02-23T00:50:16;3.67;;;1.42;;
85102;SDS011;75452;44.106;3.074;2024-02-23T00:52:42;1.52;;;1.38;;
85102;SDS011;75452;44.106;3.074;2024-02-23T00:55:08;1.65;;;1.10;;
85102;SDS011;75452;44.106;3.074;2024-02-23T00:57:34;2.60;;;1.45;;
85102;SDS011;75452;44.106;3.074;2024-02-23T01:00:00;1.88;;;1.23;;
85102;SDS011;75452;44.106;3.074;2024-02-23T01:02:26;2.47;;;1.35;;
85102;SDS011;75452;44.106;3.074;2024-02-23T01:04:51;2.50;;;1.52;;
85102;SDS011;75452;44.106;3.074;2024-02-23T01:07:21;2.40;;;1.35;;
85102;SDS011;75452;44.106;3.074;2024-02-23T01:09:47;1.52;;;1.10;;
85102;SDS011;75452;44.106;3.074;2024-02-23T01:12:12;1.90;;;1.42;;
85102;SDS011;75452;44.106;3.074;2024-02-23T01:14:38;1.60;;;1.30;;
85102;SDS011;75452;44.106;3.074;2024-02-23T01:17:03;1.52;;;1.30;;
85102;SDS011;75452;44.106;3.074;2024-02-23T01:19:29;1.95;;;1.15;;
85102;SDS011;75452;44.106;3.074;2024-02-23T01:21:54;1.27;;;1.10;;
85102;SDS011;75452;44.106;3.074;2024-02-23T01:24:24;1.35;;;0.88;;
85102;SDS011;75452;44.106;3.074;2024-02-23T01:26:54;1.15;;;1.00;;
85102;SDS011;75452;44.106;3.074;2024-02-23T01:29:20;0.85;;;0.82;;
85102;SDS011;75452;44.106;3.074;2024-02-23T01:31:47;0.98;;;0.98;;
85102;SDS011;75452;44.106;3.074;2024-02-23T01:34:13;1.95;;;1.10;;
85102;SDS011;75452;44.106;3.074;2024-02-23T01:36:38;1.27;;;1.15;;
85102;SDS011;75452;44.106;3.074;2024-02-23T01:39:04;1.23;;;1.13;;
85102;SDS011;75452;44.106;3.074;2024-02-23T01:41:29;1.42;;;1.33;;
85102;SDS011;75452;44.106;3.074;2024-02-23T01:43:55;1.10;;;1.00;;
85102;SDS011;75452;44.106;3.074;2024-02-23T01:46:20;1.60;;;0.93;;
85102;SDS011;75452;44.106;3.074;2024-02-23T01:48:46;1.15;;;0.88;;
85102;SDS011;75452;44.106;3.074;2024-02-23T01:51:12;2.08;;;1.10;;
85102;SDS011;75452;44.106;3.074;2024-02-23T01:53:37;1.13;;;0.90;;
85102;SDS011;75452;44.106;3.074;2024-02-23T01:56:04;1.27;;;1.00;;
85102;SDS011;75452;44.106;3.074;2024-02-23T01:58:30;1.30;;;0.90;;
85102;SDS011;75452;44.106;3.074;2024-02-23T02:00:56;2.17;;;1.40;;
85102;SDS011;75452;44.106;3.074;2024-02-23T02:03:21;1.20;;;1.08;;
85102;SDS011;75452;44.106;3.074;2024-02-23T02:05:46;1.55;;;1.20;;
85102;SDS011;75452;44.106;3.074;2024-02-23T02:08:12;1.38;;;1.20;;
85102;SDS011;75452;44.106;3.074;2024-02-23T02:10:37;2.20;;;1.30;;
85102;SDS011;75452;44.106;3.074;2024-02-23T02:13:03;1.30;;;1.10;;
85102;SDS011;75452;44.106;3.074;2024-02-23T02:15:29;1.48;;;1.15;;
85102;SDS011;75452;44.106;3.074;2024-02-23T02:17:55;1.70;;;1.23;;
85102;SDS011;75452;44.106;3.074;2024-02-23T02:20:22;1.45;;;1.27;;
85102;SDS011;75452;44.106;3.074;2024-02-23T02:22:49;2.65;;;1.13;;
85102;SDS011;75452;44.106;3.074;2024-02-23T02:25:15;1.30;;;1.20;;
85102;SDS011;75452;44.106;3.074;2024-02-23T02:27:43;1.55;;;1.00;;
85102;SDS011;75452;44.106;3.074;2024-02-23T02:30:10;1.38;;;1.15;;
85102;SDS011;75452;44.106;3.074;2024-02-23T02:32:37;2.03;;;1.30;;
85102;SDS011;75452;44.106;3.074;2024-02-23T02:35:02;1.15;;;0.98;;
85102;SDS011;75452;44.106;3.074;2024-02-23T02:37:28;1.45;;;1.00;;
85102;SDS011;75452;44.106;3.074;2024-02-23T02:39:54;0.90;;;0.85;;
85102;SDS011;75452;44.106;3.074;2024-02-23T02:42:19;1.23;;;0.93;;
85102;SDS011;75452;44.106;3.074;2024-02-23T02:44:45;3.25;;;1.35;;
85102;SDS011;75452;44.106;3.074;2024-02-23T02:47:10;1.38;;;1.08;;
85102;SDS011;75452;44.106;3.074;2024-02-23T02:49:35;1.48;;;0.80;;
85102;SDS011;75452;44.106;3.074;2024-02-23T02:52:01;1.52;;;1.40;;
85102;SDS011;75452;44.106;3.074;2024-02-23T02:54:26;1.20;;;1.10;;
85102;SDS011;75452;44.106;3.074;2024-02-23T02:56:52;1.42;;;1.15;;
85102;SDS011;75452;44.106;3.074;2024-02-23T02:59:19;1.55;;;1.00;;
85102;SDS011;75452;44.106;3.074;2024-02-23T03:01:45;1.00;;;0.85;;
85102;SDS011;75452;44.106;3.074;2024-02-23T03:04:12;1.15;;;0.85;;
85102;SDS011;75452;44.106;3.074;2024-02-23T03:06:37;1.48;;;1.30;;
85102;SDS011;75452;44.106;3.074;2024-02-23T03:09:03;1.52;;;1.00;;
85102;SDS011;75452;44.106;3.074;2024-02-23T03:11:28;1.55;;;1.30;;
85102;SDS011;75452;44.106;3.074;2024-02-23T03:13:53;1.67;;;1.10;;
85102;SDS011;75452;44.106;3.074;2024-02-23T03:16:20;0.93;;;0.85;;
85102;SDS011;75452;44.106;3.074;2024-02-23T03:18:46;1.52;;;1.10;;
85102;SDS011;75452;44.106;3.074;2024-02-23T03:21:12;1.23;;;1.10;;
85102;SDS011;75452;44.106;3.074;2024-02-23T03:23:38;1.30;;;1.08;;
85102;SDS011;75452;44.106;3.074;2024-02-23T03:26:03;1.75;;;1.10;;
85102;SDS011;75452;44.106;3.074;2024-02-23T03:28:29;1.20;;;1.08;;
85102;SDS011;75452;44.106;3.074;2024-02-23T03:30:54;1.02;;;0.93;;
85102;SDS011;75452;44.106;3.074;2024-02-23T03:33:20;1.08;;;0.88;;
85102;SDS011;75452;44.106;3.074;2024-02-23T03:35:45;1.10;;;1.00;;
85102;SDS011;75452;44.106;3.074;2024-02-23T03:38:10;1.48;;;0.95;;
85102;SDS011;75452;44.106;3.074;2024-02-23T03:40:36;1.08;;;0.88;;
85102;SDS011;75452;44.106;3.074;2024-02-23T03:43:02;1.30;;;1.10;;
85102;SDS011;75452;44.106;3.074;2024-02-23T03:45:27;0.75;;;0.70;;
85102;SDS011;75452;44.106;3.074;2024-02-23T03:47:53;1.35;;;0.70;;
85102;SDS011;75452;44.106;3.074;2024-02-23T03:50:18;0.85;;;0.70;;
85102;SDS011;75452;44.106;3.074;2024-02-23T03:52:44;1.95;;;0.82;;
85102;SDS011;75452;44.106;3.074;2024-02-23T03:55:09;1.67;;;1.10;;
85102;SDS011;75452;44.106;3.074;2024-02-23T03:57:35;1.65;;;0.80;;
85102;SDS011;75452;44.106;3.074;2024-02-23T04:00:00;1.45;;;1.00;;
85102;SDS011;75452;44.106;3.074;2024-02-23T04:02:26;1.48;;;1.13;;
85102;SDS011;75452;44.106;3.074;2024-02-23T04:04:51;1.02;;;0.93;;
85102;SDS011;75452;44.106;3.074;2024-02-23T04:07:16;1.00;;;0.88;;
85102;SDS011;75452;44.106;3.074;2024-02-23T04:09:42;1.25;;;0.80;;
85102;SDS011;75452;44.106;3.074;2024-02-23T04:12:07;1.00;;;0.90;;
85102;SDS011;75452;44.106;3.074;2024-02-23T04:14:33;1.25;;;1.00;;
85102;SDS011;75452;44.106;3.074;2024-02-23T04:17:02;1.10;;;0.85;;
85102;SDS011;75452;44.106;3.074;2024-02-23T04:19:28;1.15;;;0.70;;
85102;SDS011;75452;44.106;3.074;2024-02-23T04:21:53;0.77;;;0.77;;
85102;SDS011;75452;44.106;3.074;2024-02-23T04:24:19;1.00;;;0.73;;
85102;SDS011;75452;44.106;3.074;2024-02-23T04:26:45;0.70;;;0.70;;
85102;SDS011;75452;44.106;3.074;2024-02-23T04:29:10;1.00;;;0.75;;
85102;SDS011;75452;44.106;3.074;2024-02-23T04:31:36;1.83;;;1.20;;
85102;SDS011;75452;44.106;3.074;2024-02-23T04:34:02;1.25;;;0.98;;
85102;SDS011;75452;44.106;3.074;2024-02-23T04:36:28;1.10;;;0.70;;
85102;SDS011;75452;44.106;3.074;2024-02-23T04:38:54;1.00;;;0.70;;
85102;SDS011;75452;44.106;3.074;2024-02-23T04:41:19;1.13;;;0.82;;
85102;SDS011;75452;44.106;3.074;2024-02-23T04:43:46;1.42;;;1.10;;
85102;SDS011;75452;44.106;3.074;2024-02-23T04:46:11;1.05;;;0.77;;
85102;SDS011;75452;44.106;3.074;2024-02-23T04:48:38;1.85;;;0.90;;
85102;SDS011;75452;44.106;3.074;2024-02-23T04:51:03;0.98;;;0.80;;
85102;SDS011;75452;44.106;3.074;2024-02-23T04:53:29;1.13;;;0.90;;
85102;SDS011;75452;44.106;3.074;2024-02-23T04:55:54;0.80;;;0.80;;
85102;SDS011;75452;44.106;3.074;2024-02-23T04:58:19;0.95;;;0.80;;
85102;SDS011;75452;44.106;3.074;2024-02-23T05:00:45;1.10;;;0.70;;
85102;SDS011;75452;44.106;3.074;2024-02-23T05:03:11;2.08;;;0.95;;
85102;SDS011;75452;44.106;3.074;2024-02-23T05:05:36;1.00;;;0.80;;
85102;SDS011;75452;44.106;3.074;2024-02-23T05:08:03;1.48;;;0.80;;
85102;SDS011;75452;44.106;3.074;2024-02-23T05:10:28;0.60;;;0.60;;
85102;SDS011;75452;44.106;3.074;2024-02-23T05:12:54;1.10;;;0.90;;
85102;SDS011;75452;44.106;3.074;2024-02-23T05:15:20;1.08;;;0.80;;
85102;SDS011;75452;44.106;3.074;2024-02-23T05:17:46;1.02;;;0.90;;
85102;SDS011;75452;44.106;3.074;2024-02-23T05:20:11;1.33;;;0.77;;
85102;SDS011;75452;44.106;3.074;2024-02-23T05:22:38;1.17;;;0.90;;
85102;SDS011;75452;44.106;3.074;2024-02-23T05:25:03;1.02;;;0.88;;
85102;SDS011;75452;44.106;3.074;2024-02-23T05:27:30;1.25;;;0.70;;
85102;SDS011;75452;44.106;3.074;2024-02-23T05:29:55;0.85;;;0.85;;
85102;SDS011;75452;44.106;3.074;2024-02-23T05:32:21;1.40;;;0.70;;
85102;SDS011;75452;44.106;3.074;2024-02-23T05:34:46;1.35;;;0.60;;
85102;SDS011;75452;44.106;3.074;2024-02-23T05:37:11;1.95;;;0.70;;
85102;SDS011;75452;44.106;3.074;2024-02-23T05:39:37;1.27;;;0.98;;
85102;SDS011;75452;44.106;3.074;2024-02-23T05:42:05;2.67;;;0.90;;
85102;SDS011;75452;44.106;3.074;2024-02-23T05:44:33;1.23;;;0.75;;
85102;SDS011;75452;44.106;3.074;2024-02-23T05:46:58;0.75;;;0.75;;
85102;SDS011;75452;44.106;3.074;2024-02-23T05:49:23;1.58;;;1.23;;
85102;SDS011;75452;44.106;3.074;2024-02-23T05:51:49;1.63;;;1.30;;
85102;SDS011;75452;44.106;3.074;2024-02-23T05:54:14;1.45;;;1.35;;
85102;SDS011;75452;44.106;3.074;2024-02-23T05:56:40;2.10;;;1.67;;
85102;SDS011;75452;44.106;3.074;2024-02-23T05:59:08;1.15;;;1.05;;
85102;SDS011;75452;44.106;3.074;2024-02-23T06:01:33;1.40;;;1.27;;
85102;SDS011;75452;44.106;3.074;2024-02-23T06:03:58;2.72;;;1.73;;
85102;SDS011;75452;44.106;3.074;2024-02-23T06:06:24;2.38;;;1.67;;
85102;SDS011;75452;44.106;3.074;2024-02-23T06:08:49;1.52;;;1.25;;
85102;SDS011;75452;44.106;3.074;2024-02-23T06:11:16;1.73;;;1.50;;
85102;SDS011;75452;44.106;3.074;2024-02-23T06:13:41;1.88;;;1.10;;
85102;SDS011;75452;44.106;3.074;2024-02-23T06:16:10;1.75;;;1.20;;
85102;SDS011;75452;44.106;3.074;2024-02-23T06:18:36;1.20;;;1.10;;
85102;SDS011;75452;44.106;3.074;2024-02-23T06:21:10;2.55;;;1.10;;
85102;SDS011;75452;44.106;3.074;2024-02-23T06:23:36;1.77;;;0.93;;
85102;SDS011;75452;44.106;3.074;2024-02-23T06:26:02;1.23;;;1.13;;
85102;SDS011;75452;44.106;3.074;2024-02-23T06:28:27;0.88;;;0.70;;
85102;SDS011;75452;44.106;3.074;2024-02-23T06:30:53;1.02;;;0.93;;
85102;SDS011;75452;44.106;3.074;2024-02-23T06:33:18;1.45;;;1.05;;
85102;SDS011;75452;44.106;3.074;2024-02-23T06:35:44;1.58;;;1.20;;
85102;SDS011;75452;44.106;3.074;2024-02-23T06:38:09;1.13;;;1.00;;
85102;SDS011;75452;44.106;3.074;2024-02-23T06:40:35;2.28;;;1.40;;
85102;SDS011;75452;44.106;3.074;2024-02-23T06:43:00;0.70;;;0.70;;
85102;SDS011;75452;44.106;3.074;2024-02-23T06:45:25;0.90;;;0.70;;
85102;SDS011;75452;44.106;3.074;2024-02-23T06:47:51;1.08;;;0.90;;
85102;SDS011;75452;44.106;3.074;2024-02-23T06:50:16;1.08;;;1.02;;
85102;SDS011;75452;44.106;3.074;2024-02-23T06:52:42;1.27;;;0.70;;
85102;SDS011;75452;44.106;3.074;2024-02-23T06:55:07;0.98;;;0.90;;
85102;SDS011;75452;44.106;3.074;2024-02-23T06:57:34;0.52;;;0.52;;
85102;SDS011;75452;44.106;3.074;2024-02-23T07:00:00;1.48;;;1.13;;
85102;SDS011;75452;44.106;3.074;2024-02-23T07:02:25;0.75;;;0.70;;
85102;SDS011;75452;44.106;3.074;2024-02-23T07:04:51;1.30;;;0.82;;
85102;SDS011;75452;44.106;3.074;2024-02-23T07:07:16;0.70;;;0.55;;
85102;SDS011;75452;44.106;3.074;2024-02-23T07:09:41;1.38;;;0.85;;
85102;SDS011;75452;44.106;3.074;2024-02-23T07:12:07;0.80;;;0.77;;
85102;SDS011;75452;44.106;3.074;2024-02-23T07:14:32;0.82;;;0.75;;
85102;SDS011;75452;44.106;3.074;2024-02-23T07:16:58;0.90;;;0.80;;
85102;SDS011;75452;44.106;3.074;2024-02-23T07:19:23;1.13;;;1.02;;
85102;SDS011;75452;44.106;3.074;2024-02-23T07:21:48;2.17;;;0.88;;
85102;SDS011;75452;44.106;3.074;2024-02-23T07:24:14;1.98;;;1.02;;
85102;SDS011;75452;44.106;3.074;2024-02-23T07:26:39;1.27;;;0.90;;
85102;SDS011;75452;44.106;3.074;2024-02-23T07:29:05;2.72;;;1.00;;
85102;SDS011;75452;44.106;3.074;2024-02-23T07:31:32;1.17;;;0.95;;
85102;SDS011;75452;44.106;3.074;2024-02-23T07:33:57;1.65;;;0.90;;
85102;SDS011;75452;44.106;3.074;2024-02-23T07:36:23;0.90;;;0.80;;
85102;SDS011;75452;44.106;3.074;2024-02-23T07:38:48;1.02;;;0.98;;
85102;SDS011;75452;44.106;3.074;2024-02-23T07:41:14;1.55;;;1.05;;
85102;SDS011;75452;44.106;3.074;2024-02-23T07:43:40;1.73;;;0.88;;
85102;SDS011;75452;44.106;3.074;2024-02-23T07:46:05;1.35;;;1.00;;
85102;SDS011;75452;44.106;3.074;2024-02-23T07:48:33;1.55;;;1.10;;
85102;SDS011;75452;44.106;3.074;2024-02-23T07:51:02;2.05;;;1.08;;
85102;SDS011;75452;44.106;3.074;2024-02-23T07:53:30;0.75;;;0.73;;
85102;SDS011;75452;44.106;3.074;2024-02-23T07:55:56;1.17;;;0.90;;
85102;SDS011;75452;44.106;3.074;2024-02-23T07:58:24;1.20;;;1.10;;
85102;SDS011;75452;44.106;3.074;2024-02-23T08:00:51;2.25;;;0.93;;
85102;SDS011;75452;44.106;3.074;2024-02-23T08:03:17;0.80;;;0.80;;
85102;SDS011;75452;44.106;3.074;2024-02-23T08:05:43;1.10;;;0.73;;
85102;SDS011;75452;44.106;3.074;2024-02-23T08:08:08;1.00;;;0.90;;
85102;SDS011;75452;44.106;3.074;2024-02-23T08:10:34;1.30;;;0.85;;
85102;SDS011;75452;44.106;3.074;2024-02-23T08:12:59;0.88;;;0.82;;
85102;SDS011;75452;44.106;3.074;2024-02-23T08:15:25;0.98;;;0.90;;
85102;SDS011;75452;44.106;3.074;2024-02-23T08:17:50;1.02;;;0.80;;
85102;SDS011;75452;44.106;3.074;2024-02-23T08:20:16;1.17;;;1.08;;
85102;SDS011;75452;44.106;3.074;2024-02-23T08:22:41;0.60;;;0.60;;
85102;SDS011;75452;44.106;3.074;2024-02-23T08:25:06;0.77;;;0.77;;
85102;SDS011;75452;44.106;3.074;2024-02-23T08:27:32;0.80;;;0.75;;
85102;SDS011;75452;44.106;3.074;2024-02-23T08:29:58;1.75;;;0.60;;
85102;SDS011;75452;44.106;3.074;2024-02-23T08:32:24;0.60;;;0.60;;
85102;SDS011;75452;44.106;3.074;2024-02-23T08:34:49;1.05;;;0.63;;
85102;SDS011;75452;44.106;3.074;2024-02-23T08:37:17;0.77;;;0.70;;
85102;SDS011;75452;44.106;3.074;2024-02-23T08:39:43;1.67;;;0.80;;
85102;SDS011;75452;44.106;3.074;2024-02-23T08:42:09;0.68;;;0.65;;
85102;SDS011;75452;44.106;3.074;2024-02-23T08:44:35;1.27;;;0.80;;
85102;SDS011;75452;44.106;3.074;2024-02-23T08:47:00;0.70;;;0.70;;
85102;SDS011;75452;44.106;3.074;2024-02-23T08:49:27;0.68;;;0.68;;
85102;SDS011;75452;44.106;3.074;2024-02-23T08:51:52;0.93;;;0.82;;
85102;SDS011;75452;44.106;3.074;2024-02-23T08:54:17;1.38;;;0.88;;
85102;SDS011;75452;44.106;3.074;2024-02-23T08:56:43;0.60;;;0.60;;
85102;SDS011;75452;44.106;3.074;2024-02-23T08:59:08;0.63;;;0.57;;
85102;SDS011;75452;44.106;3.074;2024-02-23T09:01:34;1.00;;;0.90;;
85102;SDS011;75452;44.106;3.074;2024-02-23T09:04:00;1.63;;;0.80;;
85102;SDS011;75452;44.106;3.074;2024-02-23T09:06:26;0.70;;;0.70;;
85102;SDS011;75452;44.106;3.074;2024-02-23T09:08:51;0.63;;;0.50;;
85102;SDS011;75452;44.106;3.074;2024-02-23T09:11:16;0.52;;;0.47;;
85102;SDS011;75452;44.106;3.074;2024-02-23T09:13:42;4.95;;;0.65;;
85102;SDS011;75452;44.106;3.074;2024-02-23T09:16:08;0.55;;;0.55;;
85102;SDS011;75452;44.106;3.074;2024-02-23T09:18:34;0.50;;;0.50;;
85102;SDS011;75452;44.106;3.074;2024-02-23T09:21:00;0.50;;;0.50;;
85102;SDS011;75452;44.106;3.074;2024-02-23T09:23:25;1.10;;;0.60;;
85102;SDS011;75452;44.106;3.074;2024-02-23T09:25:51;0.63;;;0.40;;
85102;SDS011;75452;44.106;3.074;2024-02-23T09:28:16;0.60;;;0.60;;
85102;SDS011;75452;44.106;3.074;2024-02-23T09:30:41;0.73;;;0.68;;
85102;SDS011;75452;44.106;3.074;2024-02-23T09:33:07;0.55;;;0.55;;
85102;SDS011;75452;44.106;3.074;2024-02-23T09:35:33;0.52;;;0.52;;
85102;SDS011;75452;44.106;3.074;2024-02-23T09:37:58;0.40;;;0.40;;
85102;SDS011;75452;44.106;3.074;2024-02-23T09:40:24;0.70;;;0.70;;
85102;SDS011;75452;44.106;3.074;2024-02-23T09:42:58;0.80;;;0.63;;
85102;SDS011;75452;44.106;3.074;2024-02-23T09:45:27;0.43;;;0.43;;
85102;SDS011;75452;44.106;3.074;2024-02-23T09:47:54;0.45;;;0.45;;
85102;SDS011;75452;44.106;3.074;2024-02-23T09:50:22;0.70;;;0.70;;
85102;SDS011;75452;44.106;3.074;2024-02-23T09:52:48;0.35;;;0.35;;
85102;SDS011;75452;44.106;3.074;2024-02-23T09:55:16;0.40;;;0.40;;
85102;SDS011;75452;44.106;3.074;2024-02-23T09:57:43;0.50;;;0.50;;
85102;SDS011;75452;44.106;3.074;2024-02-23T10:00:08;0.43;;;0.43;;
85102;SDS011;75452;44.106;3.074;2024-02-23T10:02:35;0.77;;;0.75;;
85102;SDS011;75452;44.106;3.074;2024-02-23T10:05:03;0.50;;;0.50;;
85102;SDS011;75452;44.106;3.074;2024-02-23T10:07:29;0.52;;;0.52;;
85102;SDS011;75452;44.106;3.074;2024-02-23T10:09:55;0.82;;;0.63;;
85102;SDS011;75452;44.106;3.074;2024-02-23T10:12:23;0.40;;;0.40;;
85102;SDS011;75452;44.106;3.074;2024-02-23T10:14:48;0.85;;;0.85;;
85102;SDS011;75452;44.106;3.074;2024-02-23T10:17:14;0.50;;;0.50;;
85102;SDS011;75452;44.106;3.074;2024-02-23T10:19:39;0.57;;;0.50;;
85102;SDS011;75452;44.106;3.074;2024-02-23T10:22:04;0.70;;;0.70;;
85102;SDS011;75452;44.106;3.074;2024-02-23T10:24:30;0.50;;;0.50;;
85102;SDS011;75452;44.106;3.074;2024-02-23T10:26:55;0.60;;;0.60;;
85102;SDS011;75452;44.106;3.074;2024-02-23T10:29:21;0.60;;;0.60;;
85102;SDS011;75452;44.106;3.074;2024-02-23T10:31:46;0.68;;;0.60;;
85102;SDS011;75452;44.106;3.074;2024-02-23T10:34:15;0.77;;;0.60;;
85102;SDS011;75452;44.106;3.074;2024-02-23T10:36:44;0.60;;;0.60;;
85102;SDS011;75452;44.106;3.074;2024-02-23T10:39:12;0.50;;;0.50;;
85102;SDS011;75452;44.106;3.074;2024-02-23T10:41:42;0.50;;;0.50;;
85102;SDS011;75452;44.106;3.074;2024-02-23T10:44:18;0.40;;;0.40;;
85102;SDS011;75452;44.106;3.074;2024-02-23T10:46:43;0.57;;;0.57;;
85102;SDS011;75452;44.106;3.074;2024-02-23T10:49:09;0.40;;;0.40;;
85102;SDS011;75452;44.106;3.074;2024-02-23T10:51:36;0.38;;;0.38;;
85102;SDS011;75452;44.106;3.074;2024-02-23T10:54:04;0.50;;;0.50;;
85102;SDS011;75452;44.106;3.074;2024-02-23T10:56:29;0.50;;;0.50;;
85102;SDS011;75452;44.106;3.074;2024-02-23T10:58:55;0.82;;;0.50;;
85102;SDS011;75452;44.106;3.074;2024-02-23T11:01:20;0.43;;;0.43;;
85102;SDS011;75452;44.106;3.074;2024-02-23T11:03:46;0.40;;;0.40;;
85102;SDS011;75452;44.106;3.074;2024-02-23T11:06:15;0.50;;;0.50;;
85102;SDS011;75452;44.106;3.074;2024-02-23T11:08:45;0.45;;;0.45;;
85102;SDS011;75452;44.106;3.074;2024-02-23T11:11:11;0.85;;;0.80;;
85102;SDS011;75452;44.106;3.074;2024-02-23T11:13:39;0.50;;;0.50;;
85102;SDS011;75452;44.106;3.074;2024-02-23T11:16:05;0.82;;;0.57;;
85102;SDS011;75452;44.106;3.074;2024-02-23T11:18:34;0.50;;;0.50;;
85102;SDS011;75452;44.106;3.074;2024-02-23T11:21:02;0.57;;;0.57;;
85102;SDS011;75452;44.106;3.074;2024-02-23T11:23:40;0.63;;;0.60;;
85102;SDS011;75452;44.106;3.074;2024-02-23T11:26:12;0.57;;;0.50;;
85102;SDS011;75452;44.106;3.074;2024-02-23T11:28:47;1.08;;;0.50;;
85102;SDS011;75452;44.106;3.074;2024-02-23T11:31:14;0.45;;;0.45;;
85102;SDS011;75452;44.106;3.074;2024-02-23T11:33:40;0.55;;;0.55;;
85102;SDS011;75452;44.106;3.074;2024-02-23T11:36:06;0.50;;;0.40;;
85102;SDS011;75452;44.106;3.074;2024-02-23T11:38:32;0.55;;;0.45;;
85102;SDS011;75452;44.106;3.074;2024-02-23T11:40:59;0.35;;;0.35;;
85102;SDS011;75452;44.106;3.074;2024-02-23T11:43:25;0.60;;;0.40;;
85102;SDS011;75452;44.106;3.074;2024-02-23T11:45:51;0.60;;;0.60;;
85102;SDS011;75452;44.106;3.074;2024-02-23T11:48:16;0.30;;;0.30;;
85102;SDS011;75452;44.106;3.074;2024-02-23T11:50:42;0.20;;;0.20;;
85102;SDS011;75452;44.106;3.074;2024-02-23T11:53:07;0.30;;;0.30;;
85102;SDS011;75452;44.106;3.074;2024-02-23T11:55:33;0.30;;;0.30;;
85102;SDS011;75452;44.106;3.074;2024-02-23T11:57:59;0.40;;;0.40;;
85102;SDS011;75452;44.106;3.074;2024-02-23T12:00:24;0.30;;;0.30;;
85102;SDS011;75452;44.106;3.074;2024-02-23T12:02:50;0.20;;;0.20;;
85102;SDS011;75452;44.106;3.074;2024-02-23T12:05:15;0.50;;;0.50;;
85102;SDS011;75452;44.106;3.074;2024-02-23T12:07:41;0.32;;;0.30;;
85102;SDS011;75452;44.106;3.074;2024-02-23T12:10:07;0.32;;;0.30;;
85102;SDS011;75452;44.106;3.074;2024-02-23T12:12:33;0.38;;;0.38;;
85102;SDS011;75452;44.106;3.074;2024-02-23T12:14:59;0.30;;;0.30;;
85102;SDS011;75452;44.106;3.074;2024-02-23T12:17:24;0.82;;;0.60;;
85102;SDS011;75452;44.106;3.074;2024-02-23T12:20:01;0.47;;;0.30;;
85102;SDS011;75452;44.106;3.074;2024-02-23T12:22:27;0.60;;;0.40;;
85102;SDS011;75452;44.106;3.074;2024-02-23T12:24:53;0.32;;;0.32;;
85102;SDS011;75452;44.106;3.074;2024-02-23T12:27:18;0.45;;;0.45;;
85102;SDS011;75452;44.106;3.074;2024-02-23T12:29:54;1.30;;;0.60;;
85102;SDS011;75452;44.106;3.074;2024-02-23T12:32:20;0.30;;;0.30;;
85102;SDS011;75452;44.106;3.074;2024-02-23T12:34:46;0.30;;;0.30;;
85102;SDS011;75452;44.106;3.074;2024-02-23T12:37:14;0.57;;;0.40;;
85102;SDS011;75452;44.106;3.074;2024-02-23T12:39:40;0.55;;;0.45;;
85102;SDS011;75452;44.106;3.074;2024-02-23T12:42:06;0.32;;;0.32;;
85102;SDS011;75452;44.106;3.074;2024-02-23T12:44:32;0.43;;;0.43;;
85102;SDS011;75452;44.106;3.074;2024-02-23T12:46:57;0.45;;;0.45;;
85102;SDS011;75452;44.106;3.074;2024-02-23T12:49:23;0.50;;;0.50;;
85102;SDS011;75452;44.106;3.074;2024-02-23T12:51:48;0.25;;;0.25;;
85102;SDS011;75452;44.106;3.074;2024-02-23T12:54:14;0.57;;;0.50;;
85102;SDS011;75452;44.106;3.074;2024-02-23T12:56:39;0.40;;;0.40;;
85102;SDS011;75452;44.106;3.074;2024-02-23T12:59:05;0.82;;;0.47;;
85102;SDS011;75452;44.106;3.074;2024-02-23T13:01:30;0.52;;;0.38;;
85102;SDS011;75452;44.106;3.074;2024-02-23T13:03:59;0.47;;;0.47;;
85102;SDS011;75452;44.106;3.074;2024-02-23T13:06:24;0.38;;;0.32;;
85102;SDS011;75452;44.106;3.074;2024-02-23T13:08:50;0.30;;;0.30;;
85102;SDS011;75452;44.106;3.074;2024-02-23T13:11:16;0.40;;;0.40;;
85102;SDS011;75452;44.106;3.074;2024-02-23T13:13:41;0.40;;;0.40;;
85102;SDS011;75452;44.106;3.074;2024-02-23T13:16:06;0.30;;;0.30;;
85102;SDS011;75452;44.106;3.074;2024-02-23T13:18:33;0.50;;;0.50;;
85102;SDS011;75452;44.106;3.074;2024-02-23T13:20:59;0.50;;;0.40;;
85102;SDS011;75452;44.106;3.074;2024-02-23T13:23:24;0.30;;;0.30;;
85102;SDS011;75452;44.106;3.074;2024-02-23T13:25:50;0.40;;;0.40;;
85102;SDS011;75452;44.106;3.074;2024-02-23T13:28:15;0.50;;;0.47;;
85102;SDS011;75452;44.106;3.074;2024-02-23T13:30:40;0.32;;;0.30;;
85102;SDS011;75452;44.106;3.074;2024-02-23T13:33:06;0.40;;;0.40;;
85102;SDS011;75452;44.106;3.074;2024-02-23T13:35:35;0.30;;;0.30;;
85102;SDS011;75452;44.106;3.074;2024-02-23T13:38:01;0.50;;;0.50;;
85102;SDS011;75452;44.106;3.074;2024-02-23T13:40:28;0.65;;;0.30;;
85102;SDS011;75452;44.106;3.074;2024-02-23T13:42:55;0.40;;;0.30;;
85102;SDS011;75452;44.106;3.074;2024-02-23T13:45:20;0.50;;;0.50;;
85102;SDS011;75452;44.106;3.074;2024-02-23T13:47:58;0.50;;;0.40;;
85102;SDS011;75452;44.106;3.074;2024-02-23T13:50:27;0.40;;;0.40;;
85102;SDS011;75452;44.106;3.074;2024-02-23T13:52:53;0.65;;;0.40;;
85102;SDS011;75452;44.106;3.074;2024-02-23T13:55:18;0.30;;;0.30;;
85102;SDS011;75452;44.106;3.074;2024-02-23T13:57:45;0.30;;;0.30;;
85102;SDS011;75452;44.106;3.074;2024-02-23T14:00:12;0.60;;;0.35;;
85102;SDS011;75452;44.106;3.074;2024-02-23T14:02:38;1.48;;;0.45;;
85102;SDS011;75452;44.106;3.074;2024-02-23T14:05:05;0.50;;;0.50;;
85102;SDS011;75452;44.106;3.074;2024-02-23T14:07:34;0.40;;;0.40;;
85102;SDS011;75452;44.106;3.074;2024-02-23T14:10:00;0.63;;;0.63;;
85102;SDS011;75452;44.106;3.074;2024-02-23T14:12:25;0.65;;;0.43;;
85102;SDS011;75452;44.106;3.074;2024-02-23T14:14:51;0.40;;;0.40;;
85102;SDS011;75452;44.106;3.074;2024-02-23T14:17:16;0.35;;;0.30;;
85102;SDS011;75452;44.106;3.074;2024-02-23T14:19:42;0.32;;;0.30;;
85102;SDS011;75452;44.106;3.074;2024-02-23T14:22:07;0.47;;;0.30;;
85102;SDS011;75452;44.106;3.074;2024-02-23T14:24:32;0.40;;;0.30;;
85102;SDS011;75452;44.106;3.074;2024-02-23T14:26:58;0.60;;;0.40;;
85102;SDS011;75452;44.106;3.074;2024-02-23T14:29:23;0.45;;;0.35;;
85102;SDS011;75452;44.106;3.074;2024-02-23T14:31:49;0.55;;;0.38;;
85102;SDS011;75452;44.106;3.074;2024-02-23T14:34:14;0.32;;;0.32;;
85102;SDS011;75452;44.106;3.074;2024-02-23T14:36:39;0.40;;;0.40;;
85102;SDS011;75452;44.106;3.074;2024-02-23T14:39:05;0.60;;;0.50;;
85102;SDS011;75452;44.106;3.074;2024-02-23T14:41:30;0.50;;;0.50;;